createdAt,value
2019-04-26T00:00:47.962Z,96749.79
2019-04-26T00:03:22.234Z,96764.30
2019-04-26T00:05:52.130Z,96768.83
2019-04-26T00:08:22.678Z,96768.83
2019-04-26T00:11:05.946Z,96774.38
2019-04-26T00:13:58.074Z,96783.25
2019-04-26T00:16:35.971Z,96779.91
2019-04-26T00:19:06.125Z,96766.30
2019-04-26T00:21:36.442Z,96766.95
2019-04-26T00:24:06.486Z,96773.40
2019-04-26T00:26:36.635Z,96785.17
2019-04-26T00:29:06.893Z,96785.17
2019-04-26T00:31:36.715Z,96802.36
2019-04-26T00:34:07.526Z,96802.36
2019-04-26T00:36:37.337Z,96833.57
2019-04-26T00:39:07.860Z,96844.66
2019-04-26T00:41:38.276Z,96844.66
2019-04-26T00:44:08.063Z,96852.05
2019-04-26T00:46:38.296Z,96837.66
2019-04-26T00:49:08.415Z,96834.81
2019-04-26T00:51:38.153Z,96834.81
2019-04-26T00:54:08.030Z,96824.68
2019-04-26T00:56:37.813Z,96831.34
2019-04-26T00:59:07.998Z,96832.31
2019-04-26T01:01:40.398Z,96837.44
2019-04-26T01:04:10.579Z,96837.44
2019-04-26T01:06:42.374Z,96850.83
2019-04-26T01:09:12.126Z,96850.83
2019-04-26T01:11:42.368Z,96853.55
2019-04-26T01:14:12.071Z,96858.07
2019-04-26T01:16:41.912Z,96855.13
2019-04-26T01:19:11.714Z,96864.30
2019-04-26T01:21:47.598Z,96864.30
2019-04-26T01:24:18.293Z,96855.14
2019-04-26T01:26:48.982Z,96870.66
2019-04-26T01:29:19.574Z,96869.91
2019-04-26T01:32:02.978Z,96869.91
2019-04-26T01:34:32.856Z,96859.80
2019-04-26T01:37:03.145Z,96859.80
2019-04-26T01:39:34.105Z,96870.98
2019-04-26T01:42:11.502Z,96869.16
2019-04-26T01:45:05.595Z,96876.47
2019-04-26T01:47:35.961Z,96876.47
2019-04-26T01:50:06.054Z,96872.23
2019-04-26T01:52:35.890Z,96876.08
2019-04-26T01:55:05.756Z,96876.08
2019-04-26T01:57:35.497Z,96885.62
2019-04-26T02:00:27.625Z,96871.78
2019-04-26T02:03:00.614Z,96891.54
2019-04-26T02:05:30.585Z,96883.73
2019-04-26T02:08:00.513Z,96883.73
2019-04-26T02:10:30.746Z,96885.96
2019-04-26T02:13:00.992Z,96895.76
2019-04-26T02:15:33.469Z,96900.03
2019-04-26T02:18:03.809Z,96895.40
2019-04-26T02:21:26.360Z,96894.22
2019-04-26T02:24:06.813Z,96896.50
2019-04-26T02:26:38.763Z,96905.65
2019-04-26T02:29:19.223Z,96905.65
2019-04-26T02:31:51.970Z,96896.30
2019-04-26T02:34:21.623Z,96896.30
2019-04-26T02:36:57.961Z,96885.95
2019-04-26T02:39:24.167Z,96883.95
2019-04-26T02:41:55.564Z,96878.45
2019-04-26T02:44:29.113Z,96885.06
2019-04-26T02:47:23.640Z,96885.06
2019-04-26T02:49:53.454Z,96869.27
2019-04-26T02:52:35.195Z,96869.27
2019-04-26T02:55:11.150Z,96855.94
2019-04-26T02:57:51.481Z,96882.83
2019-04-26T03:00:21.532Z,96889.70
2019-04-26T03:02:59.484Z,96883.55
2019-04-26T03:05:30.434Z,96892.94
2019-04-26T03:08:17.665Z,96892.94
2019-04-26T03:11:18.162Z,96909.61
2019-04-26T03:14:05.923Z,96922.63
2019-04-26T03:16:56.457Z,96922.63
2019-04-26T03:19:43.790Z,96916.48
2019-04-26T03:22:42.690Z,96911.44
2019-04-26T03:25:54.102Z,96918.97
2019-04-26T03:28:40.125Z,96918.97
2019-04-26T03:31:19.444Z,96910.59
2019-04-26T03:34:08.012Z,96911.67
2019-04-26T03:37:32.556Z,96899.14
2019-04-26T03:40:20.723Z,96890.48
2019-04-26T03:43:04.169Z,96890.48
2019-04-26T03:46:16.244Z,96890.19
2019-04-26T03:48:59.572Z,96900.91
2019-04-26T03:51:48.865Z,96912.78
2019-04-26T03:54:22.078Z,96912.78
2019-04-26T03:57:22.037Z,96910.41
2019-04-26T04:00:39.311Z,96924.56
2019-04-26T04:03:45.496Z,96924.56
2019-04-26T04:06:18.450Z,96932.39
2019-04-26T04:08:53.859Z,96945.30
2019-04-26T04:11:27.634Z,96960.50
2019-04-26T04:14:09.158Z,96960.50
2019-04-26T04:17:24.741Z,96959.42
2019-04-26T04:20:28.133Z,96962.73
2019-04-26T04:23:06.127Z,96957.68
2019-04-26T04:25:40.044Z,96948.78
2019-04-26T04:28:33.605Z,96948.78
2019-04-26T04:31:29.163Z,96964.94
2019-04-26T04:34:23.665Z,96964.94
2019-04-26T04:36:53.946Z,96963.14
2019-04-26T04:39:44.853Z,96963.14
2019-04-26T04:42:35.578Z,96957.38
2019-04-26T04:45:58.733Z,96957.38
2019-04-26T04:48:46.426Z,96941.95
2019-04-26T04:51:46.905Z,96953.10
2019-04-26T04:54:19.669Z,96960.60
2019-04-26T04:57:16.627Z,96960.60
2019-04-26T05:00:34.220Z,96964.98
2019-04-26T05:03:34.315Z,96967.73
2019-04-26T05:06:49.272Z,96987.53
2019-04-26T05:09:27.848Z,96987.53
2019-04-26T05:12:09.802Z,96978.84
2019-04-26T05:14:50.133Z,96978.84
2019-04-26T05:17:37.093Z,96988.07
2019-04-26T05:20:30.146Z,96988.07
2019-04-26T05:23:47.216Z,96988.48
2019-04-26T05:26:47.488Z,96992.34
2019-04-26T05:30:22.697Z,96992.34
2019-04-26T05:33:34.676Z,96998.08
2019-04-26T05:36:54.772Z,96998.08
2019-04-26T05:39:57.495Z,97001.67
2019-04-26T05:43:02.864Z,97000.91
2019-04-26T05:46:04.776Z,96988.94
2019-04-26T05:49:34.543Z,96989.09
2019-04-26T05:53:03.609Z,96993.08
2019-04-26T05:56:19.960Z,97006.61
2019-04-26T05:59:17.139Z,97006.61
2019-04-26T06:02:39.134Z,97025.27
2019-04-26T06:05:37.727Z,97020.41
2019-04-26T06:08:35.030Z,97016.48
2019-04-26T06:11:10.529Z,97012.33
2019-04-26T06:14:19.925Z,97012.33
2019-04-26T06:17:33.611Z,97015.74
2019-04-26T06:20:24.500Z,97015.99
2019-04-26T06:23:16.765Z,97012.56
2019-04-26T06:26:02.933Z,97020.77
2019-04-26T06:29:05.306Z,97020.77
2019-04-26T06:32:02.586Z,97046.61
2019-04-26T06:35:08.851Z,97045.64
2019-04-26T06:37:50.650Z,97045.64
2019-04-26T06:40:58.486Z,97053.83
2019-04-26T06:43:36.340Z,97066.73
2019-04-26T06:46:49.744Z,97066.73
2019-04-26T06:49:50.506Z,97086.98
2019-04-26T06:52:22.092Z,97069.77
2019-04-26T06:55:09.811Z,97071.78
2019-04-26T06:58:13.191Z,97054.62
2019-04-26T07:01:21.382Z,97061.54
2019-04-26T07:04:10.112Z,97052.80
2019-04-26T07:06:49.786Z,97053.62
2019-04-26T07:09:19.386Z,97053.62
2019-04-26T07:12:41.552Z,97049.20
2019-04-26T07:15:46.695Z,97049.20
2019-04-26T07:18:49.156Z,97071.25
2019-04-26T07:21:38.163Z,97075.52
2019-04-26T07:25:03.618Z,97071.25
2019-04-26T07:28:12.394Z,97083.20
2019-04-26T07:30:51.380Z,97083.20
2019-04-26T07:33:48.082Z,97090.97
2019-04-26T07:37:00.208Z,97104.52
2019-04-26T07:39:50.388Z,97104.52
2019-04-26T07:43:09.077Z,97109.60
2019-04-26T07:46:19.121Z,97119.18
2019-04-26T07:49:30.699Z,97112.70
2019-04-26T07:52:25.606Z,97112.70
2019-04-26T07:55:38.974Z,97123.14
2019-04-26T07:59:13.466Z,97120.25
2019-04-26T08:02:18.591Z,97120.25
2019-04-26T08:04:54.956Z,97125.23
2019-04-26T08:07:25.221Z,97132.53
2019-04-26T08:10:07.846Z,97125.16
2019-04-26T08:12:37.931Z,97133.09
2019-04-26T08:15:27.789Z,97136.63
2019-04-26T08:18:05.521Z,97149.41
2019-04-26T08:20:50.658Z,97149.41
2019-04-26T08:23:38.546Z,97154.73
2019-04-26T08:26:01.078Z,97150.70
2019-04-26T08:28:31.614Z,97150.70
2019-04-26T08:31:04.648Z,97147.98
2019-04-26T08:33:48.292Z,97140.20
2019-04-26T08:36:15.004Z,97135.72
2019-04-26T08:38:52.602Z,97145.83
2019-04-26T08:41:21.506Z,97141.96
2019-04-26T08:44:19.651Z,97148.11
2019-04-26T08:47:13.899Z,97156.14
2019-04-26T08:49:58.305Z,97156.14
2019-04-26T08:52:30.854Z,97150.13
2019-04-26T08:55:00.921Z,97150.13
2019-04-26T08:57:32.991Z,97145.05
2019-04-26T09:00:02.864Z,97163.84
2019-04-26T09:02:52.257Z,97163.84
2019-04-26T09:05:45.637Z,97174.61
2019-04-26T09:08:15.646Z,97184.00
2019-04-26T09:10:46.512Z,97184.00
2019-04-26T09:13:16.331Z,97186.01
2019-04-26T09:16:02.760Z,97184.23
2019-04-26T09:18:43.195Z,97181.67
2019-04-26T09:21:07.515Z,97172.84
2019-04-26T09:24:11.342Z,97184.62
2019-04-26T09:26:49.635Z,97179.27
2019-04-26T09:29:32.111Z,97173.66
2019-04-26T09:32:10.376Z,97164.08
2019-04-26T09:34:41.414Z,97173.23
2019-04-26T09:37:13.800Z,97174.88
2019-04-26T09:39:43.470Z,97171.28
2019-04-26T09:42:22.899Z,97171.28
2019-04-26T09:45:02.111Z,97175.45
2019-04-26T09:47:39.794Z,97175.50
2019-04-26T09:50:17.708Z,97173.33
2019-04-26T09:52:50.001Z,97173.33
2019-04-26T09:55:19.562Z,97193.28
2019-04-26T09:57:53.452Z,97193.28
2019-04-26T10:00:28.439Z,97203.87
2019-04-26T10:02:58.338Z,97203.87
2019-04-26T10:05:28.217Z,97203.23
2019-04-26T10:08:04.655Z,97206.16
2019-04-26T10:10:37.716Z,97197.85
2019-04-26T10:13:31.900Z,97209.03
2019-04-26T10:16:23.149Z,97209.03
2019-04-26T10:18:58.338Z,97220.38
2019-04-26T10:21:28.386Z,97220.38
2019-04-26T10:23:58.335Z,97223.70
2019-04-26T10:26:29.540Z,97223.70
2019-04-26T10:28:59.350Z,97224.41
2019-04-26T10:31:30.041Z,97223.58
2019-04-26T10:33:59.748Z,97224.13
2019-04-26T10:36:31.411Z,97225.67
2019-04-26T10:39:02.419Z,97223.83
2019-04-26T10:41:32.628Z,97214.54
2019-04-26T10:44:02.258Z,97214.54
2019-04-26T10:46:31.811Z,97213.51
2019-04-26T10:49:08.894Z,97206.70
2019-04-26T10:51:41.888Z,97206.65
2019-04-26T10:54:18.334Z,97206.65
2019-04-26T10:57:00.220Z,97195.72
2019-04-26T11:00:01.316Z,97185.84
2019-04-26T11:02:31.606Z,97185.84
2019-04-26T11:05:01.839Z,97195.86
2019-04-26T11:07:42.758Z,97198.42
2019-04-26T11:10:12.793Z,97198.42
2019-04-26T11:12:43.343Z,97205.19
2019-04-26T11:15:14.746Z,97188.09
2019-04-26T11:17:46.017Z,97184.88
2019-04-26T11:20:24.185Z,97184.88
2019-04-26T11:22:53.940Z,97191.22
2019-04-26T11:25:24.632Z,97202.09
2019-04-26T11:27:55.119Z,97203.14
2019-04-26T11:30:24.950Z,97192.34
2019-04-26T11:32:54.783Z,97189.28
2019-04-26T11:35:24.719Z,97187.50
2019-04-26T11:37:56.653Z,97187.50
2019-04-26T11:40:26.651Z,97201.98
2019-04-26T11:42:56.201Z,97204.33
2019-04-26T11:45:25.635Z,97214.80
2019-04-26T11:47:58.214Z,97212.78
2019-04-26T11:50:27.836Z,97204.19
2019-04-26T11:52:57.458Z,97201.32
2019-04-26T11:55:31.474Z,97198.95
2019-04-26T11:58:01.572Z,97198.95
2019-04-26T12:00:36.189Z,97203.19
2019-04-26T12:03:06.305Z,97195.58
2019-04-26T12:05:54.942Z,97195.58
2019-04-26T12:08:37.649Z,97202.16
2019-04-26T12:11:17.828Z,97197.59
2019-04-26T12:13:39.706Z,97197.27
2019-04-26T12:16:14.605Z,97199.47
2019-04-26T12:18:44.154Z,97199.47
2019-04-26T12:21:14.935Z,97199.44
2019-04-26T12:23:45.240Z,97186.63
2019-04-26T12:26:17.331Z,97184.91
2019-04-26T12:28:46.083Z,97189.33
2019-04-26T12:31:16.088Z,97189.33
2019-04-26T12:33:46.269Z,97194.24
2019-04-26T12:36:16.137Z,97178.50
2019-04-26T12:38:46.986Z,97179.63
2019-04-26T12:41:17.196Z,97179.63
2019-04-26T12:43:48.410Z,97182.55
2019-04-26T12:46:29.079Z,97188.64
2019-04-26T12:48:59.767Z,97188.64
2019-04-26T12:51:29.348Z,97187.28
2019-04-26T12:53:59.466Z,97188.70
2019-04-26T12:56:31.224Z,97194.72
2019-04-26T12:59:02.719Z,97202.73
2019-04-26T13:01:34.652Z,97202.73
2019-04-26T13:04:08.060Z,97202.67
2019-04-26T13:06:44.140Z,97206.89
2019-04-26T13:09:15.114Z,97214.80
2019-04-26T13:12:12.599Z,97212.23
2019-04-26T13:15:19.648Z,97212.07
2019-04-26T13:17:58.257Z,97212.07
2019-04-26T13:20:28.733Z,97213.25
2019-04-26T13:23:02.171Z,97211.31
2019-04-26T13:25:40.232Z,97220.63
2019-04-26T13:28:06.542Z,97223.30
2019-04-26T13:30:40.073Z,97226.03
2019-04-26T13:33:22.899Z,97226.03
2019-04-26T13:36:02.567Z,97226.14
2019-04-26T13:38:26.312Z,97234.97
2019-04-26T13:40:59.836Z,97234.97
2019-04-26T13:43:28.760Z,97240.02
2019-04-26T13:46:23.682Z,97232.79
2019-04-26T13:49:18.022Z,97229.35
2019-04-26T13:51:48.509Z,97229.35
2019-04-26T13:54:21.093Z,97222.89
2019-04-26T13:56:50.299Z,97231.48
2019-04-26T13:59:22.023Z,97231.48
2019-04-26T14:01:53.556Z,97227.20
2019-04-26T14:04:23.272Z,97226.37
2019-04-26T14:06:54.178Z,97234.20
2019-04-26T14:09:23.876Z,97234.20
2019-04-26T14:11:53.455Z,97240.68
2019-04-26T14:14:23.370Z,97240.68
2019-04-26T14:16:55.787Z,97240.67
2019-04-26T14:19:25.598Z,97242.96
2019-04-26T14:21:55.423Z,97247.19
2019-04-26T14:24:56.887Z,97247.19
2019-04-26T14:27:35.182Z,97250.40
2019-04-26T14:30:06.755Z,97245.56
2019-04-26T14:32:38.458Z,97244.75
2019-04-26T14:35:11.423Z,97247.45
2019-04-26T14:37:39.713Z,97248.13
2019-04-26T14:40:17.155Z,97243.67
2019-04-26T14:42:47.073Z,97241.61
2019-04-26T14:45:23.142Z,97236.71
2019-04-26T14:47:47.930Z,97236.71
2019-04-26T14:50:17.716Z,97235.77
2019-04-26T14:52:47.371Z,97227.45
2019-04-26T14:55:21.332Z,97232.79
2019-04-26T14:57:51.295Z,97225.88
2019-04-26T15:00:25.150Z,97225.88
2019-04-26T15:03:20.865Z,97228.06
2019-04-26T15:06:07.474Z,97234.87
2019-04-26T15:08:40.549Z,97232.41
2019-04-26T15:11:13.773Z,97232.41
2019-04-26T15:13:46.978Z,97236.52
2019-04-26T15:16:16.705Z,97227.07
2019-04-26T15:18:46.406Z,97220.56
2019-04-26T15:21:16.176Z,97220.56
2019-04-26T15:23:46.212Z,97218.50
2019-04-26T15:26:24.289Z,97208.77
2019-04-26T15:28:52.085Z,97207.92
2019-04-26T15:31:24.873Z,97203.95
2019-04-26T15:33:55.154Z,97200.85
2019-04-26T15:36:24.888Z,97200.85
2019-04-26T15:38:55.750Z,97208.28
2019-04-26T15:41:50.756Z,97208.28
2019-04-26T15:44:39.064Z,97209.69
2019-04-26T15:47:24.749Z,97209.69
2019-04-26T15:50:10.892Z,97213.47
2019-04-26T15:52:42.360Z,97206.14
2019-04-26T15:55:13.359Z,97206.14
2019-04-26T15:57:43.342Z,97212.20
2019-04-26T16:00:15.186Z,97212.20
2019-04-26T16:02:44.797Z,97216.59
2019-04-26T16:05:16.569Z,97219.55
2019-04-26T16:07:50.131Z,97219.55
2019-04-26T16:10:17.230Z,97217.48
2019-04-26T16:12:49.503Z,97217.48
2019-04-26T16:15:18.970Z,97218.88
2019-04-26T16:17:49.957Z,97220.55
2019-04-26T16:20:19.586Z,97220.48
2019-04-26T16:22:49.928Z,97220.48
2019-04-26T16:25:19.768Z,97218.33
2019-04-26T16:27:50.870Z,97221.77
2019-04-26T16:30:37.666Z,97214.31
2019-04-26T16:33:13.097Z,97214.31
2019-04-26T16:35:43.144Z,97210.90
2019-04-26T16:38:40.468Z,97210.90
2019-04-26T16:41:10.083Z,97214.66
2019-04-26T16:43:52.160Z,97219.64
2019-04-26T16:46:20.354Z,97219.64
2019-04-26T16:48:47.962Z,97229.19
2019-04-26T16:51:19.800Z,97229.19
2019-04-26T16:54:05.412Z,97239.73
2019-04-26T16:56:25.762Z,97250.79
2019-04-26T16:58:54.920Z,97250.79
2019-04-26T17:01:23.467Z,97245.69
2019-04-26T17:03:53.915Z,97246.08
2019-04-26T17:06:24.745Z,97243.61
2019-04-26T17:09:01.180Z,97243.61
2019-04-26T17:11:30.316Z,97245.12
2019-04-26T17:14:04.086Z,97241.23
2019-04-26T17:16:33.594Z,97241.23
2019-04-26T17:19:04.376Z,97228.84
2019-04-26T17:21:40.602Z,97236.79
2019-04-26T17:24:38.086Z,97241.47
2019-04-26T17:27:11.372Z,97242.36
2019-04-26T17:29:47.155Z,97242.92
2019-04-26T17:32:17.702Z,97248.91
2019-04-26T17:34:49.083Z,97248.91
2019-04-26T17:37:21.822Z,97237.80
2019-04-26T17:39:55.413Z,97237.80
2019-04-26T17:42:29.763Z,97236.64
2019-04-26T17:45:06.835Z,97240.45
2019-04-26T17:47:37.568Z,97255.33
2019-04-26T17:50:06.827Z,97255.33
2019-04-26T17:52:38.205Z,97265.92
2019-04-26T17:55:11.863Z,97265.92
2019-04-26T17:57:42.342Z,97260.52
2019-04-26T18:00:15.237Z,97264.36
2019-04-26T18:02:48.021Z,97265.56
2019-04-26T18:05:15.142Z,97277.87
2019-04-26T18:07:58.351Z,97275.98
2019-04-26T18:10:24.773Z,97273.14
2019-04-26T18:12:54.736Z,97273.14
2019-04-26T18:15:25.436Z,97278.66
2019-04-26T18:18:17.391Z,97276.62
2019-04-26T18:21:13.015Z,97276.62
2019-04-26T18:23:54.705Z,97273.08
2019-04-26T18:26:26.382Z,97278.50
2019-04-26T18:29:01.125Z,97278.50
2019-04-26T18:31:33.599Z,97278.24
2019-04-26T18:34:05.526Z,97282.41
2019-04-26T18:36:38.862Z,97282.41
2019-04-26T18:39:10.157Z,97287.44
2019-04-26T18:41:40.282Z,97293.29
2019-04-26T18:44:16.301Z,97293.29
2019-04-26T18:46:56.324Z,97294.00
2019-04-26T18:49:28.847Z,97294.00
2019-04-26T18:52:01.059Z,97292.05
2019-04-26T18:54:54.300Z,97294.72
2019-04-26T18:57:25.611Z,97302.58
2019-04-26T19:00:01.666Z,97302.58
2019-04-26T19:02:33.298Z,97304.10
2019-04-26T19:05:07.774Z,97305.38
2019-04-26T19:07:38.169Z,97307.12
2019-04-26T19:10:12.087Z,97314.11
2019-04-26T19:12:43.667Z,97317.50
2019-04-26T19:15:33.647Z,97319.61
2019-04-26T19:18:17.367Z,97319.61
2019-04-26T19:21:11.629Z,97330.65
2019-04-26T19:23:41.616Z,97326.78
2019-04-26T19:26:13.644Z,97325.70
2019-04-26T19:28:50.447Z,97330.80
2019-04-26T19:31:23.950Z,97330.80
2019-04-26T19:33:56.119Z,97332.75
2019-04-26T19:36:29.320Z,97340.10
2019-04-26T19:38:58.889Z,97340.10
2019-04-26T19:41:31.875Z,97336.46
2019-04-26T19:44:08.379Z,97338.75
2019-04-26T19:47:06.637Z,97335.34
2019-04-26T19:50:03.217Z,97340.62
2019-04-26T19:52:46.200Z,97345.34
2019-04-26T19:55:47.372Z,97350.44
2019-04-26T19:58:20.471Z,97350.44
2019-04-26T20:00:49.145Z,97346.40
2019-04-26T20:03:18.908Z,97350.00
2019-04-26T20:05:49.335Z,97350.00
2019-04-26T20:08:21.544Z,97346.09
2019-04-26T20:10:53.361Z,97344.61
2019-04-26T20:13:23.168Z,97344.61
2019-04-26T20:15:57.322Z,97346.45
2019-04-26T20:18:28.498Z,97341.66
2019-04-26T20:20:59.045Z,97341.66
2019-04-26T20:23:33.879Z,97344.55
2019-04-26T20:26:07.086Z,97344.55
2019-04-26T20:28:38.318Z,97335.67
2019-04-26T20:31:19.675Z,97334.19
2019-04-26T20:33:49.651Z,97334.19
2019-04-26T20:36:19.281Z,97336.38
2019-04-26T20:38:49.500Z,97333.73
2019-04-26T20:41:19.773Z,97331.41
2019-04-26T20:44:03.084Z,97334.05
2019-04-26T20:46:25.091Z,97334.05
2019-04-26T20:49:01.434Z,97332.83
2019-04-26T20:51:34.494Z,97331.21
2019-04-26T20:54:06.118Z,97333.33
2019-04-26T20:56:36.383Z,97328.66
2019-04-26T20:59:06.163Z,97335.42
2019-04-26T21:01:35.903Z,97335.42
2019-04-26T21:04:07.020Z,97335.00
2019-04-26T21:06:37.012Z,97334.72
2019-04-26T21:09:09.029Z,97337.11
2019-04-26T21:11:38.902Z,97336.59
2019-04-26T21:14:09.074Z,97336.89
2019-04-26T21:16:38.904Z,97328.06
2019-04-26T21:19:12.759Z,97332.13
2019-04-26T21:21:41.994Z,97325.30
2019-04-26T21:24:19.939Z,97325.30
2019-04-26T21:27:05.243Z,97335.44
2019-04-26T21:30:06.446Z,97335.44
2019-04-26T21:32:58.958Z,97327.73
2019-04-26T21:35:30.186Z,97334.98
2019-04-26T21:38:07.222Z,97337.72
2019-04-26T21:40:48.506Z,97341.25
2019-04-26T21:43:18.772Z,97341.25
2019-04-26T21:45:48.791Z,97342.45
2019-04-26T21:48:19.062Z,97342.45
2019-04-26T21:50:49.525Z,97344.70
2019-04-26T21:53:19.260Z,97340.07
2019-04-26T21:55:49.067Z,97340.07
2019-04-26T21:58:19.141Z,97343.30
2019-04-26T22:01:06.451Z,97339.41
2019-04-26T22:03:36.188Z,97337.12
2019-04-26T22:06:06.664Z,97337.12
2019-04-26T22:08:39.145Z,97339.75
2019-04-26T22:11:09.127Z,97341.52
2019-04-26T22:13:47.147Z,97344.11
2019-04-26T22:16:34.112Z,97344.11
2019-04-26T22:19:21.573Z,97338.39
2019-04-26T22:22:10.162Z,97334.99
2019-04-26T22:24:40.249Z,97330.06
2019-04-26T22:27:10.380Z,97330.42
2019-04-26T22:29:40.149Z,97330.42
2019-04-26T22:32:11.455Z,97333.48
2019-04-26T22:34:44.876Z,97340.89
2019-04-26T22:37:23.162Z,97340.89
2019-04-26T22:39:46.207Z,97346.13
2019-04-26T22:42:16.759Z,97354.88
2019-04-26T22:45:09.507Z,97345.27
2019-04-26T22:47:45.416Z,97345.27
2019-04-26T22:50:20.920Z,97348.24
2019-04-26T22:52:51.526Z,97348.24
2019-04-26T22:55:24.041Z,97339.23
2019-04-26T22:57:50.673Z,97344.12
2019-04-26T23:00:25.608Z,97339.13
2019-04-26T23:02:53.350Z,97332.42
2019-04-26T23:05:23.327Z,97332.42
2019-04-26T23:07:54.687Z,97336.52
2019-04-26T23:10:31.202Z,97336.58
2019-04-26T23:13:24.111Z,97327.92
2019-04-26T23:16:11.457Z,97319.48
2019-04-26T23:18:53.634Z,97319.48
2019-04-26T23:21:26.369Z,97315.11
2019-04-26T23:23:56.004Z,97323.98
2019-04-26T23:26:26.072Z,97314.00
2019-04-26T23:28:55.841Z,97320.83
2019-04-26T23:31:25.963Z,97323.67
2019-04-26T23:33:55.779Z,97323.67
2019-04-26T23:36:25.521Z,97325.81
2019-04-26T23:38:55.729Z,97324.30
2019-04-26T23:41:26.048Z,97319.15
2019-04-26T23:44:02.510Z,97312.61
2019-04-26T23:46:28.032Z,97312.11
2019-04-26T23:48:57.800Z,97312.11
2019-04-26T23:51:27.885Z,97313.75
2019-04-26T23:53:57.973Z,97314.86
2019-04-26T23:56:27.751Z,97315.67
2019-04-26T23:58:57.943Z,97313.72
